CheckWX is a tool to help pilots better visualize weather data.  It is not intended as a substitute for an official pre-flight weather briefing.

06:51:06 UTC

6A2 METAR
Griffin-Spalding County Airport
Griffin, Georgia, USA
Current

16 mins ago

K6A2 230635Z AUTO 00000KT 10SM CLR 12/11 A3014 RMK AO2
Observed
Apr-23 @ 06:35 UTC
Visibility
10 SM
Flight Rules
VFR
Cloud Levels
  • Clear skies
Temperature
12°C / 54°F
Dewpoint
11°C / 52°F
Humidity
94%
Altimeter
30.14" Hg
Pressure
1020.62 hPa
Previous

36 mins ago

K6A2 230615Z AUTO 00000KT 10SM CLR 12/10 A3015 RMK AO2
Observed
Apr-23 @ 06:15 UTC
Visibility
10 SM
Flight Rules
VFR
Cloud Levels
  • Clear skies
Temperature
12°C / 54°F
Dewpoint
10°C / 50°F
Humidity
88%
Altimeter
30.15" Hg
Pressure
1021.02 hPa
Previous

56 mins ago

K6A2 230555Z AUTO 00000KT 10SM CLR 12/10 A3015 RMK AO2
Observed
Apr-23 @ 05:55 UTC
Visibility
10 SM
Flight Rules
VFR
Cloud Levels
  • Clear skies
Temperature
12°C / 54°F
Dewpoint
10°C / 50°F
Humidity
88%
Altimeter
30.15" Hg
Pressure
1021.02 hPa